createdAt,value
2018-12-13T00:00:15.904Z,8.58
2018-12-13T00:00:56.291Z,8.55
2018-12-13T00:01:36.677Z,8.58
2018-12-13T00:02:17.062Z,8.63
2018-12-13T00:04:09.396Z,8.7
2018-12-13T00:04:49.809Z,8.7
2018-12-13T00:05:30.224Z,8.75
2018-12-13T00:06:10.624Z,8.71
2018-12-13T00:06:51.025Z,8.71
2018-12-13T00:07:31.440Z,8.64
2018-12-13T00:08:11.854Z,8.68
2018-12-13T00:08:52.272Z,8.78
2018-12-13T00:09:32.686Z,8.79
2018-12-13T00:10:13.101Z,8.78
2018-12-13T00:10:53.506Z,8.73
2018-12-13T00:11:33.928Z,8.78
2018-12-13T00:12:14.265Z,8.73
2018-12-13T00:12:54.647Z,8.73
2018-12-13T00:13:35.084Z,8.68
2018-12-13T00:14:15.450Z,8.75
2018-12-13T00:14:55.846Z,8.8
2018-12-13T00:15:36.297Z,8.76
2018-12-13T00:16:16.712Z,8.78
2018-12-13T00:16:57.126Z,8.85
2018-12-13T00:17:37.569Z,8.82
2018-12-13T00:18:17.922Z,8.75
2018-12-13T00:18:58.307Z,8.88
2018-12-13T00:19:38.703Z,8.89
2018-12-13T00:20:19.098Z,8.86
2018-12-13T00:22:06.448Z,8.75
2018-12-13T00:22:46.854Z,8.63
2018-12-13T00:23:27.236Z,8.75
2018-12-13T00:24:07.620Z,8.71
2018-12-13T00:24:48.040Z,8.75
2018-12-13T00:25:28.419Z,8.64
2018-12-13T00:26:08.815Z,8.73
2018-12-13T00:28:26.111Z,8.65
2018-12-13T00:29:03.954Z,8.61
2018-12-13T00:29:44.365Z,8.65
2018-12-13T00:30:24.748Z,8.64
2018-12-13T00:31:05.084Z,8.61
2018-12-13T00:31:45.492Z,8.68
2018-12-13T00:32:25.878Z,8.75
2018-12-13T00:33:06.289Z,8.67
2018-12-13T00:33:46.642Z,8.76
2018-12-13T00:34:27.060Z,8.57
2018-12-13T00:35:07.479Z,8.52
2018-12-13T00:35:47.885Z,8.6
2018-12-13T00:36:28.278Z,8.65
2018-12-13T00:37:08.711Z,8.64
2018-12-13T00:37:49.045Z,8.61
2018-12-13T00:38:30.213Z,8.63
2018-12-13T00:39:09.817Z,8.6
2018-12-13T00:39:50.201Z,8.49
2018-12-13T00:40:30.600Z,8.43
2018-12-13T00:41:11.003Z,8.47
2018-12-13T00:41:51.419Z,8.58
2018-12-13T00:42:31.823Z,8.46
2018-12-13T00:43:12.215Z,8.43
2018-12-13T00:43:52.582Z,8.36
2018-12-13T00:44:32.951Z,8.31
2018-12-13T00:45:13.360Z,8.37
2018-12-13T00:45:53.745Z,8.4
2018-12-13T00:46:34.139Z,8.42
2018-12-13T00:47:14.549Z,8.39
2018-12-13T00:47:54.912Z,8.36
2018-12-13T00:48:35.276Z,8.42
2018-12-13T00:49:15.678Z,8.55
2018-12-13T00:49:56.085Z,8.46
2018-12-13T00:50:36.472Z,8.52
2018-12-13T00:51:16.937Z,8.47
2018-12-13T00:51:57.255Z,8.52
2018-12-13T00:52:37.637Z,8.45
2018-12-13T00:53:18.041Z,8.52
2018-12-13T00:53:58.434Z,8.46
2018-12-13T00:54:38.823Z,8.54
2018-12-13T00:55:19.174Z,8.55
2018-12-13T00:55:59.685Z,8.54
2018-12-13T00:56:40.132Z,8.57
2018-12-13T00:57:20.429Z,8.57
2018-12-13T00:58:00.925Z,8.61
2018-12-13T00:58:41.233Z,8.65
2018-12-13T00:59:21.668Z,8.7
2018-12-13T01:00:02.027Z,8.71
2018-12-13T01:00:42.453Z,8.7
2018-12-13T01:01:22.837Z,8.65
2018-12-13T01:02:03.257Z,8.65
2018-12-13T01:02:43.603Z,8.71
2018-12-13T01:03:23.992Z,8.73
2018-12-13T01:04:04.362Z,8.63
2018-12-13T01:04:44.774Z,8.7
2018-12-13T01:05:25.214Z,8.64
2018-12-13T01:06:05.682Z,8.73
2018-12-13T01:06:46.225Z,8.73
2018-12-13T01:07:26.326Z,8.76
2018-12-13T01:08:06.730Z,8.75
2018-12-13T01:08:47.195Z,8.82
2018-12-13T01:09:27.536Z,8.73
2018-12-13T01:10:08.059Z,8.78
2018-12-13T01:10:48.411Z,8.8
2018-12-13T01:11:28.847Z,8.67
2018-12-13T01:12:09.165Z,8.73
2018-12-13T01:12:49.609Z,8.78
2018-12-13T01:13:29.992Z,8.76
2018-12-13T01:14:10.386Z,8.73
2018-12-13T01:14:50.742Z,8.75
2018-12-13T01:15:31.144Z,8.83
2018-12-13T01:16:11.576Z,8.76
2018-12-13T01:16:53.775Z,8.76
2018-12-13T01:17:34.151Z,8.68
2018-12-13T01:18:14.606Z,8.75
2018-12-13T01:18:54.890Z,8.76
2018-12-13T01:19:36.300Z,8.73
2018-12-13T01:20:16.740Z,8.7
2018-12-13T01:20:57.151Z,8.7
2018-12-13T01:21:37.511Z,8.63
2018-12-13T01:22:17.884Z,8.78
2018-12-13T01:22:58.272Z,8.76
2018-12-13T01:23:38.671Z,8.79
2018-12-13T01:24:19.062Z,8.83
2018-12-13T01:24:59.481Z,8.86
2018-12-13T01:25:39.866Z,8.91
2018-12-13T01:26:20.267Z,8.83
2018-12-13T01:27:00.668Z,8.86
2018-12-13T01:27:41.090Z,8.86
2018-12-13T01:28:21.546Z,8.94
2018-12-13T01:29:01.895Z,8.94
2018-12-13T01:29:42.300Z,8.93
2018-12-13T01:30:22.699Z,8.94
2018-12-13T01:31:03.116Z,9
2018-12-13T01:31:43.479Z,8.96
2018-12-13T01:32:23.897Z,8.94
2018-12-13T01:33:04.347Z,8.89
2018-12-13T01:33:44.741Z,8.89
2018-12-13T01:34:25.125Z,8.86
2018-12-13T01:35:05.508Z,8.88
2018-12-13T01:35:45.890Z,8.89
2018-12-13T01:36:26.336Z,8.78
2018-12-13T01:37:06.654Z,8.93
2018-12-13T01:37:47.088Z,9
2018-12-13T01:38:27.438Z,8.94
2018-12-13T01:39:07.920Z,8.96
2018-12-13T01:39:48.207Z,9.06
2018-12-13T01:40:28.604Z,9.06
2018-12-13T01:41:08.991Z,9.06
2018-12-13T01:41:49.389Z,8.96
2018-12-13T01:42:29.793Z,9.1
2018-12-13T01:43:10.421Z,9.04
2018-12-13T01:43:51.500Z,8.96
2018-12-13T01:44:31.896Z,8.98
2018-12-13T01:45:12.258Z,9.12
2018-12-13T01:47:06.610Z,9.15
2018-12-13T01:47:47.029Z,9.19
2018-12-13T01:48:27.441Z,9.23
2018-12-13T01:49:07.833Z,9.16
2018-12-13T01:49:48.237Z,9.2
2018-12-13T01:50:28.630Z,9.17
2018-12-13T01:51:09.019Z,9.16
2018-12-13T01:51:49.396Z,9.23
2018-12-13T01:52:29.799Z,9.22
2018-12-13T01:53:10.172Z,9.24
2018-12-13T01:53:50.589Z,9.23
2018-12-13T01:54:30.983Z,9.34
2018-12-13T01:55:11.355Z,9.23
2018-12-13T01:55:51.761Z,9.24
2018-12-13T01:56:32.160Z,9.27
2018-12-13T01:57:12.519Z,9.23
2018-12-13T01:57:52.922Z,9.19
2018-12-13T01:58:33.328Z,9.22
2018-12-13T01:59:13.734Z,9.23
2018-12-13T01:59:54.143Z,9.16
2018-12-13T02:00:34.540Z,9.12
2018-12-13T02:01:14.953Z,9.12
2018-12-13T02:01:55.350Z,9.06
2018-12-13T02:02:35.763Z,9.06
2018-12-13T02:03:16.166Z,9.08
2018-12-13T02:05:13.832Z,9.08
2018-12-13T02:05:54.185Z,9.08
2018-12-13T02:06:34.584Z,9.13
2018-12-13T02:07:14.931Z,9.08
2018-12-13T02:07:55.341Z,9.08
2018-12-13T02:08:35.766Z,9.1
2018-12-13T02:09:16.194Z,9.08
2018-12-13T02:09:56.582Z,9.12
2018-12-13T02:10:37.014Z,9.12
2018-12-13T02:11:17.460Z,9.1
2018-12-13T02:11:57.833Z,9.03
2018-12-13T02:12:38.222Z,8.96
2018-12-13T02:13:18.592Z,9.03
2018-12-13T02:13:58.993Z,9.12
2018-12-13T02:14:39.364Z,9.08
2018-12-13T02:15:19.777Z,9.13
2018-12-13T02:16:00.162Z,9.13
2018-12-13T02:16:40.580Z,9.08
2018-12-13T02:17:20.983Z,9.08
2018-12-13T02:18:01.390Z,8.93
2018-12-13T02:18:41.795Z,8.98
2018-12-13T02:19:22.207Z,8.91
2018-12-13T02:20:02.649Z,8.93
2018-12-13T02:20:43.067Z,8.96
2018-12-13T02:21:23.415Z,8.94
2018-12-13T02:22:03.913Z,8.86
2018-12-13T02:22:44.333Z,8.78
2018-12-13T02:23:24.744Z,8.82
2018-12-13T02:24:05.218Z,8.76
2018-12-13T02:24:45.601Z,8.73
2018-12-13T02:25:26.021Z,8.75
2018-12-13T02:26:06.397Z,8.75
2018-12-13T02:26:46.813Z,8.73
2018-12-13T02:27:27.254Z,8.78
2018-12-13T02:28:07.599Z,8.76
2018-12-13T02:28:48.003Z,8.79
2018-12-13T02:29:28.418Z,8.79
2018-12-13T02:30:08.836Z,8.73
2018-12-13T02:30:49.228Z,8.73
2018-12-13T02:31:29.650Z,8.73
2018-12-13T02:32:10.071Z,8.7
2018-12-13T02:32:50.479Z,8.68
2018-12-13T02:33:30.886Z,8.78
2018-12-13T02:34:11.216Z,8.65
2018-12-13T02:34:51.622Z,8.67
2018-12-13T02:35:32.029Z,8.61
2018-12-13T02:36:12.425Z,8.61
2018-12-13T02:36:52.879Z,8.61
2018-12-13T02:37:33.249Z,8.63
2018-12-13T02:38:13.641Z,8.6
2018-12-13T02:38:54.054Z,8.6
2018-12-13T02:39:34.465Z,8.57
2018-12-13T02:40:14.883Z,8.58
2018-12-13T02:40:55.284Z,8.61
2018-12-13T02:41:35.683Z,8.6
2018-12-13T02:42:16.095Z,8.55
2018-12-13T02:42:56.501Z,8.63
2018-12-13T02:43:37.341Z,8.54
2018-12-13T02:44:17.710Z,8.58
2018-12-13T02:44:58.110Z,8.6
2018-12-13T02:45:38.454Z,8.57
2018-12-13T02:46:18.833Z,8.6
2018-12-13T02:46:59.263Z,8.61
2018-12-13T02:47:39.638Z,8.55
2018-12-13T02:48:20.076Z,8.49
2018-12-13T02:49:00.470Z,8.49
2018-12-13T02:49:40.825Z,8.46
2018-12-13T02:50:21.217Z,8.47
2018-12-13T02:51:01.581Z,8.54
2018-12-13T02:51:41.992Z,8.47
2018-12-13T02:52:22.372Z,8.49
2018-12-13T02:53:02.780Z,8.46
2018-12-13T02:53:43.123Z,8.49
2018-12-13T02:54:23.548Z,8.46
2018-12-13T02:55:03.923Z,8.54
2018-12-13T02:55:44.346Z,8.46
2018-12-13T02:56:24.692Z,8.54
2018-12-13T02:57:05.126Z,8.42
2018-12-13T02:57:45.442Z,8.43
2018-12-13T02:58:25.863Z,8.43
2018-12-13T02:59:06.237Z,8.31
2018-12-13T02:59:46.641Z,8.29
2018-12-13T03:00:27.024Z,8.2
2018-12-13T03:01:07.439Z,8.32
2018-12-13T03:01:47.829Z,8.31
2018-12-13T03:02:28.226Z,8.36
2018-12-13T03:03:08.684Z,8.37
2018-12-13T03:03:49.038Z,8.28
2018-12-13T03:04:29.468Z,8.25
2018-12-13T03:05:09.806Z,8.34
2018-12-13T03:05:50.199Z,8.2
2018-12-13T03:06:30.632Z,8.17
2018-12-13T03:07:13.853Z,8.18
2018-12-13T03:07:51.411Z,8.21
2018-12-13T03:08:31.754Z,8.21
2018-12-13T03:09:12.191Z,8.24
2018-12-13T03:09:52.551Z,8.22
2018-12-13T03:10:32.959Z,8.14
2018-12-13T03:11:13.385Z,8.37
2018-12-13T03:11:53.799Z,8.18
2018-12-13T03:12:34.178Z,8.17
2018-12-13T03:13:14.621Z,8.13
2018-12-13T03:13:54.957Z,8.17
2018-12-13T03:14:35.334Z,8.18
2018-12-13T03:15:15.811Z,8.18
2018-12-13T03:15:56.125Z,8.14
2018-12-13T03:16:36.542Z,8.2
2018-12-13T03:17:16.950Z,8.14
2018-12-13T03:17:57.339Z,8.18
2018-12-13T03:18:37.769Z,8.22
2018-12-13T03:19:18.152Z,8.21
2018-12-13T03:19:58.565Z,8.31
2018-12-13T03:20:38.982Z,8.28
2018-12-13T03:21:19.374Z,8.32
2018-12-13T03:21:59.780Z,8.22
2018-12-13T03:22:40.178Z,8.28
2018-12-13T03:23:20.548Z,8.32
2018-12-13T03:24:00.968Z,8.28
2018-12-13T03:24:41.408Z,8.31
2018-12-13T03:25:21.768Z,8.31
2018-12-13T03:26:02.165Z,8.34
2018-12-13T03:26:42.550Z,8.29
2018-12-13T03:27:23.015Z,8.29
2018-12-13T03:28:03.419Z,8.27
2018-12-13T03:28:43.765Z,8.42
2018-12-13T03:29:24.170Z,8.42
2018-12-13T03:30:04.568Z,8.29
2018-12-13T03:30:44.993Z,8.36
2018-12-13T03:31:25.340Z,8.45
2018-12-13T03:32:05.769Z,8.37
2018-12-13T03:32:46.198Z,8.34
2018-12-13T03:33:26.599Z,8.31
2018-12-13T03:34:07.001Z,8.32
2018-12-13T03:34:49.055Z,8.29
2018-12-13T03:35:27.795Z,8.25
2018-12-13T03:36:08.205Z,8.22
2018-12-13T03:36:48.619Z,8.34
2018-12-13T03:37:29.065Z,8.31
2018-12-13T03:38:09.440Z,8.22
2018-12-13T03:38:49.818Z,8.21
2018-12-13T03:39:30.175Z,8.14
2018-12-13T03:40:10.592Z,8.18
2018-12-13T03:40:51.018Z,8.25
2018-12-13T03:41:31.395Z,8.18
2018-12-13T03:42:11.796Z,8.28
2018-12-13T03:42:52.187Z,8.18
2018-12-13T03:43:32.581Z,8.22
2018-12-13T03:44:12.955Z,8.2
2018-12-13T03:44:53.356Z,8.21
2018-12-13T03:45:33.769Z,8.2
2018-12-13T03:46:14.169Z,8.13
2018-12-13T03:46:54.597Z,8.12
2018-12-13T03:47:35.017Z,8.07
2018-12-13T03:48:15.399Z,8.09
2018-12-13T03:48:55.787Z,8.06
2018-12-13T03:49:36.228Z,8.09
2018-12-13T03:50:16.562Z,7.99
2018-12-13T03:50:56.989Z,7.92
2018-12-13T03:51:37.398Z,7.94
2018-12-13T03:52:17.753Z,7.94
2018-12-13T03:52:58.151Z,7.96
2018-12-13T03:53:38.559Z,7.88
2018-12-13T03:54:18.923Z,7.95
2018-12-13T03:54:59.319Z,7.96
2018-12-13T03:55:39.701Z,7.94
2018-12-13T03:56:20.151Z,7.96
2018-12-13T03:57:00.494Z,7.92
2018-12-13T03:57:40.908Z,7.86
2018-12-13T03:59:36.547Z,7.81
2018-12-13T04:00:16.977Z,7.81
2018-12-13T04:00:57.395Z,7.73
2018-12-13T04:01:37.822Z,7.66
2018-12-13T04:02:18.226Z,7.52
2018-12-13T04:02:58.645Z,7.57
2018-12-13T04:03:39.062Z,7.52
2018-12-13T04:04:19.470Z,7.47
2018-12-13T04:04:59.854Z,7.37
2018-12-13T04:05:40.231Z,7.34
2018-12-13T04:06:20.622Z,7.34
2018-12-13T04:07:01.034Z,7.27
2018-12-13T04:07:41.418Z,7.37
2018-12-13T04:08:21.797Z,7.37
2018-12-13T04:09:02.214Z,7.34
2018-12-13T04:09:42.597Z,7.32
2018-12-13T04:10:23.003Z,7.27
2018-12-13T04:11:03.394Z,7.39
2018-12-13T04:11:43.799Z,7.33
2018-12-13T04:12:24.190Z,7.41
2018-12-13T04:13:04.626Z,7.29
2018-12-13T04:13:45.026Z,7.27
2018-12-13T04:14:25.385Z,7.23
2018-12-13T04:15:05.805Z,7.23
2018-12-13T04:15:46.206Z,7.23
2018-12-13T04:16:26.620Z,7.29
2018-12-13T04:17:07.012Z,7.26
2018-12-13T04:17:47.459Z,7.21
2018-12-13T04:18:27.806Z,7.29
2018-12-13T04:19:08.213Z,7.24
2018-12-13T04:19:48.606Z,7.27
2018-12-13T04:20:29.000Z,7.3
2018-12-13T04:21:09.385Z,7.24
2018-12-13T04:21:49.787Z,7.21
2018-12-13T04:22:30.152Z,7.14
2018-12-13T04:23:10.544Z,7.14
2018-12-13T04:23:50.926Z,7.14
2018-12-13T04:24:31.297Z,7.14
2018-12-13T04:25:11.673Z,7.08
2018-12-13T04:25:52.067Z,7.08
2018-12-13T04:26:32.536Z,6.91
2018-12-13T04:27:12.863Z,6.93
2018-12-13T05:08:37.809Z,6.43
2018-12-13T05:09:19.318Z,6.51
2018-12-13T05:09:59.530Z,6.57
2018-12-13T05:10:39.930Z,6.48
2018-12-13T05:11:20.325Z,6.45
2018-12-13T05:12:00.742Z,6.45
2018-12-13T05:12:41.146Z,6.4
2018-12-13T05:13:21.528Z,6.24
2018-12-13T05:14:01.919Z,6.28
2018-12-13T05:14:42.339Z,6.21
2018-12-13T05:15:22.698Z,6.25
2018-12-13T05:16:03.091Z,6.32
2018-12-13T05:16:43.494Z,6.45
2018-12-13T05:17:23.889Z,6.35
2018-12-13T05:18:04.318Z,6.42
2018-12-13T05:18:44.681Z,6.5
2018-12-13T05:19:25.066Z,6.48
2018-12-13T05:20:05.444Z,6.53
2018-12-13T05:20:45.860Z,6.48
2018-12-13T05:21:26.281Z,6.54
2018-12-13T05:22:06.688Z,6.63
2018-12-13T05:22:47.066Z,6.68
2018-12-13T05:23:27.475Z,6.72
2018-12-13T05:24:07.847Z,6.93
2018-12-13T05:24:48.253Z,6.86
2018-12-13T05:25:28.611Z,6.94
2018-12-13T05:26:09.009Z,6.96
2018-12-13T05:26:49.403Z,6.91
2018-12-13T05:27:29.781Z,6.96
2018-12-13T05:28:10.240Z,6.93
2018-12-13T05:28:50.585Z,7.08
2018-12-13T05:29:30.991Z,7.05
2018-12-13T05:30:11.402Z,7.11
2018-12-13T05:30:51.816Z,7.11
2018-12-13T05:31:32.181Z,7.18
2018-12-13T05:32:12.570Z,7.14
2018-12-13T05:32:52.973Z,7.15
2018-12-13T05:33:33.391Z,7.19
2018-12-13T05:34:24.763Z,7.21
2018-12-13T05:35:05.395Z,7.24
2018-12-13T05:35:46.312Z,7.18
2018-12-13T05:36:26.891Z,7.3
2018-12-13T05:37:07.307Z,7.33
2018-12-13T05:37:48.298Z,7.23
2018-12-13T05:38:29.533Z,7.33
2018-12-13T05:39:10.076Z,7.34
2018-12-13T05:39:50.701Z,7.34
2018-12-13T05:40:31.404Z,7.34
2018-12-13T05:41:12.408Z,7.47
2018-12-13T05:41:53.223Z,7.32
2018-12-13T05:42:34.315Z,7.19
2018-12-13T05:43:15.002Z,7.23
2018-12-13T05:43:55.391Z,7.19
2018-12-13T05:44:35.869Z,7.19
2018-12-13T05:45:16.258Z,7.12
2018-12-13T05:45:56.592Z,7.16
2018-12-13T05:46:36.978Z,7.07
2018-12-13T05:47:17.367Z,7.12
2018-12-13T05:47:57.777Z,7.18
2018-12-13T05:48:38.208Z,7.15
2018-12-13T05:49:18.604Z,7.26
2018-12-13T05:49:59.007Z,7.21
2018-12-13T05:50:39.463Z,7.19
2018-12-13T05:51:19.808Z,7.21
2018-12-13T05:52:16.803Z,7.15
2018-12-13T05:52:57.171Z,7.21
2018-12-13T05:53:37.580Z,7.23
2018-12-13T05:54:17.985Z,7.3
2018-12-13T05:54:58.363Z,7.34
2018-12-13T05:55:38.766Z,7.37
2018-12-13T05:56:19.186Z,7.36
2018-12-13T05:56:59.569Z,7.32
2018-12-13T05:57:40.008Z,7.37
2018-12-13T05:58:20.432Z,7.41
2018-12-13T05:59:00.839Z,7.41
2018-12-13T05:59:42.869Z,7.37
2018-12-13T06:00:24.107Z,7.34
2018-12-13T06:01:06.178Z,7.24
2018-12-13T06:01:46.569Z,7.33
2018-12-13T06:02:26.958Z,7.27
2018-12-13T06:03:07.389Z,7.32
2018-12-13T06:03:47.781Z,7.26
2018-12-13T06:04:28.134Z,7.33
2018-12-13T06:05:08.526Z,7.23
2018-12-13T06:05:48.909Z,7.24
2018-12-13T06:06:29.322Z,7.39
2018-12-13T06:07:09.758Z,7.33
2018-12-13T06:07:54.761Z,7.34
2018-12-13T06:08:33.457Z,7.18
2018-12-13T06:09:13.898Z,7.21
2018-12-13T06:09:54.308Z,7.16
2018-12-13T06:10:34.659Z,7.32
2018-12-13T06:11:15.041Z,7.19
2018-12-13T06:11:58.936Z,7.26
2018-12-13T06:12:39.373Z,7.24
2018-12-13T06:13:19.709Z,7.21
2018-12-13T06:14:00.075Z,7.19
2018-12-13T06:14:40.486Z,7.24
2018-12-13T06:15:20.885Z,7.27
2018-12-13T06:16:02.952Z,7.18
2018-12-13T06:16:43.273Z,7.24
2018-12-13T06:17:23.692Z,7.23
2018-12-13T06:18:06.868Z,7.27
2018-12-13T06:18:44.439Z,7.23
2018-12-13T06:19:26.773Z,7.33
2018-12-13T06:20:05.278Z,7.3
2018-12-13T06:20:45.623Z,7.3
2018-12-13T06:21:26.012Z,7.29
2018-12-13T06:22:06.654Z,7.21
2018-12-13T06:22:47.057Z,7.19
2018-12-13T06:23:27.421Z,7.21
2018-12-13T06:24:07.844Z,7.18
2018-12-13T06:24:48.229Z,7.12
2018-12-13T06:25:28.704Z,7.05
2018-12-13T06:26:09.047Z,7.08
2018-12-13T06:26:49.444Z,7.04
2018-12-13T06:27:29.852Z,7.14
2018-12-13T06:28:10.267Z,7.11
2018-12-13T06:29:07.453Z,7.05
2018-12-13T06:29:48.901Z,7.08
2018-12-13T06:30:28.204Z,7.04
2018-12-13T06:31:08.608Z,7.04
2018-12-13T06:31:49.065Z,7.01
2018-12-13T06:32:29.412Z,7.08
2018-12-13T06:33:09.832Z,6.93
2018-12-13T06:33:50.199Z,6.89
2018-12-13T06:34:30.614Z,6.87
2018-12-13T06:35:10.973Z,6.79
2018-12-13T06:35:51.337Z,6.79
2018-12-13T06:36:31.771Z,6.89
2018-12-13T06:37:13.748Z,6.93
2018-12-13T06:37:54.381Z,6.83
2018-12-13T06:38:34.724Z,6.89
2018-12-13T06:39:16.446Z,6.86
2018-12-13T06:39:56.803Z,6.86
2018-12-13T06:40:39.049Z,6.81
2018-12-13T06:41:20.372Z,6.82
2018-12-13T06:42:01.742Z,6.93
2018-12-13T06:42:42.087Z,6.93
2018-12-13T06:43:22.496Z,6.68
2018-12-13T06:44:02.870Z,6.68
2018-12-13T06:44:43.228Z,6.73
2018-12-13T06:45:23.659Z,6.64
2018-12-13T06:46:06.045Z,6.54
2018-12-13T06:46:47.395Z,6.55
2018-12-13T06:47:38.319Z,6.53
2018-12-13T06:48:34.526Z,6.54
2018-12-13T06:49:17.317Z,6.55
2018-12-13T06:49:59.354Z,6.61
2018-12-13T06:50:39.314Z,6.53
2018-12-13T06:51:21.877Z,6.64
2018-12-13T06:52:02.161Z,6.69
2018-12-13T06:52:42.629Z,6.65
2018-12-13T06:53:22.988Z,6.68
2018-12-13T06:54:03.373Z,6.68
2018-12-13T06:54:47.570Z,6.78
2018-12-13T06:55:27.904Z,6.87
2018-12-13T06:56:08.289Z,6.9
2018-12-13T06:56:48.667Z,6.89
2018-12-13T06:57:29.027Z,6.93
2018-12-13T06:58:09.399Z,6.89
2018-12-13T06:58:49.900Z,6.87
2018-12-13T06:59:30.251Z,6.78
2018-12-13T07:00:10.613Z,6.83
2018-12-13T07:00:51.011Z,6.82
2018-12-13T07:01:31.500Z,6.72
2018-12-13T07:02:11.882Z,6.68
2018-12-13T07:02:52.254Z,6.71
2018-12-13T07:03:32.628Z,6.72
2018-12-13T07:04:13.235Z,6.68
2018-12-13T07:06:02.333Z,6.64
2018-12-13T07:06:42.664Z,6.83
2018-12-13T07:07:23.071Z,6.9
2018-12-13T07:08:07.735Z,6.79
2018-12-13T07:08:44.121Z,6.83
2018-12-13T07:09:24.493Z,6.75
2018-12-13T07:10:04.926Z,6.64
2018-12-13T07:10:45.337Z,6.68
2018-12-13T07:11:25.723Z,6.68
2018-12-13T07:12:06.176Z,6.54
2018-12-13T07:12:46.569Z,6.55
2018-12-13T07:13:26.961Z,6.48
2018-12-13T07:14:07.405Z,6.45
2018-12-13T07:14:47.956Z,6.38
2018-12-13T07:15:28.325Z,6.36
2018-12-13T07:16:08.736Z,6.36
2018-12-13T07:16:49.148Z,6.45
2018-12-13T07:17:29.531Z,6.42
2018-12-13T07:18:09.925Z,6.5
2018-12-13T07:18:50.388Z,6.46
2018-12-13T07:19:30.927Z,6.63
2018-12-13T07:20:11.333Z,6.68
2018-12-13T07:20:51.707Z,6.72
2018-12-13T07:22:45.037Z,6.71
2018-12-13T07:23:25.195Z,6.61
2018-12-13T07:24:05.657Z,6.71
2018-12-13T07:24:48.934Z,6.53
2018-12-13T07:25:29.480Z,6.55
2018-12-13T07:26:09.908Z,6.51
2018-12-13T07:26:50.324Z,6.5
2018-12-13T07:27:30.678Z,6.48
2018-12-13T07:28:12.823Z,6.53
2018-12-13T07:28:53.321Z,6.45
2018-12-13T07:29:33.816Z,6.48
2018-12-13T07:30:24.618Z,6.48
2018-12-13T07:31:05.195Z,6.46
2018-12-13T07:31:46.158Z,6.53
2018-12-13T07:32:26.772Z,6.57
2018-12-13T07:33:07.401Z,6.53
2018-12-13T07:33:48.098Z,6.64
2018-12-13T07:34:28.856Z,6.55
2018-12-13T07:35:09.386Z,6.68
2018-12-13T07:35:51.039Z,6.73
2018-12-13T07:36:33.517Z,6.76
2018-12-13T07:37:14.270Z,6.93
2018-12-13T07:37:54.701Z,6.96
2018-12-13T07:38:35.684Z,6.91
2018-12-13T07:39:18.073Z,6.83
2018-12-13T07:40:00.701Z,6.81
2018-12-13T07:40:41.267Z,6.81
2018-12-13T07:41:21.606Z,6.64
2018-12-13T07:42:02.200Z,6.78
2018-12-13T07:42:42.670Z,6.82
2018-12-13T07:43:23.102Z,6.93
2018-12-13T07:44:03.546Z,6.94
2018-12-13T07:44:46.367Z,6.93
2018-12-13T07:45:29.230Z,6.93
2018-12-13T07:46:09.636Z,6.91
2018-12-13T07:46:51.026Z,6.86
2018-12-13T07:47:38.581Z,6.79
2018-12-13T07:49:33.257Z,6.71
2018-12-13T07:50:13.580Z,6.72
2018-12-13T07:50:54.025Z,6.83
2018-12-13T07:51:34.404Z,6.83
2018-12-13T07:52:14.912Z,6.99
2018-12-13T07:52:55.243Z,7.04
2018-12-13T07:53:35.706Z,6.9
2018-12-13T07:54:16.098Z,6.93
2018-12-13T07:54:56.644Z,7.04
2018-12-13T07:55:37.083Z,7.18
2018-12-13T07:56:17.454Z,7.37
2018-12-13T07:56:57.861Z,7.54
2018-12-13T07:57:38.222Z,7.63
2018-12-13T07:58:18.661Z,7.66
2018-12-13T07:58:59.065Z,7.69
2018-12-13T07:59:39.467Z,7.82
2018-12-13T08:00:19.904Z,7.84
2018-12-13T08:01:00.422Z,7.85
2018-12-13T08:01:41.035Z,7.91
2018-12-13T08:04:33.586Z,7.92
2018-12-13T08:05:13.983Z,8.07
2018-12-13T08:05:54.381Z,8.13
2018-12-13T08:07:46.748Z,7.94
2018-12-13T08:08:27.323Z,7.84
2018-12-13T08:09:07.716Z,7.73
2018-12-13T08:09:48.211Z,7.74
2018-12-13T08:10:28.545Z,7.84
2018-12-13T08:11:08.946Z,7.86
2018-12-13T08:11:49.425Z,7.91
2018-12-13T08:12:29.809Z,7.91
2018-12-13T08:13:10.239Z,7.92
2018-12-13T08:13:50.737Z,8.03
2018-12-13T08:14:31.119Z,7.92
2018-12-13T08:15:11.527Z,7.96
2018-12-13T08:15:51.939Z,7.96
2018-12-13T08:16:32.311Z,8.06
2018-12-13T08:17:12.925Z,8.09
2018-12-13T08:17:53.435Z,8.22
2018-12-13T08:18:33.983Z,8.25
2018-12-13T08:19:14.489Z,8.43
2018-12-13T08:19:55.168Z,8.61
2018-12-13T08:20:35.577Z,8.64
2018-12-13T08:21:16.209Z,8.68
2018-12-13T08:21:56.579Z,8.58
2018-12-13T08:22:37.059Z,8.75
2018-12-13T08:23:17.440Z,8.75
2018-12-13T08:23:57.887Z,8.82
2018-12-13T08:26:01.044Z,7.58
2018-12-13T08:27:00.740Z,7.32
2018-12-13T08:27:56.331Z,7.11
2018-12-13T08:28:53.406Z,6.93
2018-12-13T08:29:45.609Z,7.08
2018-12-13T08:30:42.408Z,7.12
2018-12-13T08:31:50.427Z,6.71
2018-12-13T08:34:28.823Z,6.71
2018-12-13T08:35:09.174Z,6.91
2018-12-13T08:35:49.587Z,6.63
2018-12-13T08:36:30.091Z,6.53
2018-12-13T08:37:10.377Z,6.38
2018-12-13T08:37:50.796Z,6.5
2018-12-13T08:38:31.257Z,6.53
2018-12-13T08:39:12.657Z,6.71
2018-12-13T08:39:52.353Z,6.83
2018-12-13T08:40:32.878Z,6.76
2018-12-13T08:41:13.275Z,6.83
2018-12-13T08:43:01.734Z,7.09
2018-12-13T08:43:42.925Z,7.18
2018-12-13T08:44:26.352Z,7.18
2018-12-13T08:45:07.554Z,7.32
2018-12-13T08:45:48.034Z,7.44
2018-12-13T08:46:28.838Z,7.37
2018-12-13T08:47:09.171Z,7.27
2018-12-13T08:47:49.595Z,7.19
2018-12-13T08:48:29.983Z,7.32
2018-12-13T08:49:10.484Z,7.47
2018-12-13T08:49:50.987Z,7.52
2018-12-13T08:50:31.859Z,7.66
2018-12-13T08:51:12.089Z,7.82
2018-12-13T08:51:52.398Z,7.96
2018-12-13T08:52:33.349Z,7.96
2018-12-13T08:53:13.799Z,8.14
2018-12-13T08:53:54.896Z,8.31
2018-12-13T08:54:37.126Z,8.57
2018-12-13T08:55:18.522Z,8.57
2018-12-13T08:56:00.022Z,8.58
2018-12-13T08:56:40.061Z,8.58
2018-12-13T08:58:38.367Z,8.42
2018-12-13T08:59:18.970Z,8.52
2018-12-13T08:59:59.495Z,8.57
2018-12-13T09:00:39.821Z,8.65
2018-12-13T09:01:20.217Z,8.71
2018-12-13T09:02:00.606Z,8.94
2018-12-13T09:02:41.051Z,8.86
2018-12-13T09:03:21.569Z,8.89
2018-12-13T09:04:02.834Z,8.94
2018-12-13T09:04:43.306Z,9.04
2018-12-13T09:05:23.861Z,9.08
2018-12-13T09:06:04.513Z,9.08
2018-12-13T09:06:44.901Z,9.1
2018-12-13T09:07:25.322Z,9.06
2018-12-13T09:08:06.665Z,9.22
2018-12-13T09:08:47.032Z,9.32
2018-12-13T09:09:27.461Z,9.22
2018-12-13T09:10:07.947Z,9.12
2018-12-13T09:10:48.349Z,9.1
2018-12-13T09:11:28.874Z,9.12
2018-12-13T09:12:09.226Z,8.78
2018-12-13T09:12:49.649Z,8.8
2018-12-13T09:13:30.063Z,8.73
2018-12-13T09:14:10.568Z,8.6
2018-12-13T09:14:50.942Z,8.17
2018-12-13T09:15:31.381Z,8.06
2018-12-13T09:16:11.750Z,8.07
2018-12-13T09:16:52.246Z,8.03
2018-12-13T09:18:56.912Z,8.17
2018-12-13T09:19:38.469Z,7.92
2018-12-13T09:20:19.098Z,7.95
2018-12-13T09:20:59.581Z,7.77
2018-12-13T09:21:42.451Z,7.94
2018-12-13T09:22:22.894Z,7.92
2018-12-13T09:23:03.779Z,8.1
2018-12-13T09:23:45.074Z,8.27
2018-12-13T09:24:24.706Z,8.31
2018-12-13T09:25:05.520Z,8.31
2018-12-13T09:25:46.808Z,8.32
2018-12-13T09:26:28.127Z,8.29
2018-12-13T09:27:11.256Z,8.47
2018-12-13T09:27:54.282Z,8.6
2018-12-13T09:28:34.830Z,8.75
2018-12-13T09:29:15.284Z,8.94
2018-12-13T09:29:56.268Z,9.19
2018-12-13T09:30:37.108Z,9.26
2018-12-13T09:31:16.658Z,9.04
2018-12-13T09:31:57.228Z,9.08
2018-12-13T09:32:37.623Z,9.04
2018-12-13T09:33:18.404Z,9.04
2018-12-13T09:34:00.153Z,8.39
2018-12-13T09:34:42.669Z,8
2018-12-13T09:35:23.300Z,7.76
2018-12-13T09:36:05.095Z,7.6
2018-12-13T09:36:45.006Z,7.69
2018-12-13T09:37:27.752Z,7.5
2018-12-13T09:38:12.522Z,7.37
2018-12-13T09:38:54.814Z,7.14
2018-12-13T09:39:36.325Z,6.91
2018-12-13T09:40:18.592Z,6.86
2018-12-13T09:40:58.332Z,7.08
2018-12-13T09:41:39.340Z,7.18
2018-12-13T09:42:21.093Z,7.32
2018-12-13T09:43:04.596Z,7.45
2018-12-13T09:43:54.078Z,7.7
2018-12-13T09:44:35.200Z,7.92
2018-12-13T09:45:17.594Z,8.36
2018-12-13T09:45:58.593Z,8.47
2018-12-13T09:46:40.272Z,8.39
2018-12-13T09:47:27.008Z,8.04
2018-12-13T09:48:11.063Z,7.85
2018-12-13T09:48:55.397Z,7.7
2018-12-13T09:49:37.653Z,7.67
2018-12-13T09:50:21.708Z,7.81
2018-12-13T09:51:02.139Z,7.67
2018-12-13T09:51:44.138Z,7.92
2018-12-13T09:52:41.397Z,8.18
2018-12-13T09:53:25.187Z,8.09
2018-12-13T09:54:09.197Z,7.95
2018-12-13T09:54:53.271Z,7.73
2018-12-13T09:55:37.610Z,7.18
2018-12-13T09:56:21.467Z,7.21
2018-12-13T09:57:04.346Z,6.93
2018-12-13T09:57:52.649Z,6.93
2018-12-13T09:58:32.951Z,7.05
2018-12-13T09:59:13.213Z,7.24
2018-12-13T10:01:07.613Z,7.48
2018-12-13T10:02:18.559Z,7.94
2018-12-13T10:04:11.922Z,8.82
2018-12-13T10:04:51.377Z,9.13
2018-12-13T10:06:28.673Z,9.16
2018-12-13T10:07:09.936Z,9.19
2018-12-13T10:07:50.257Z,8.98
2018-12-13T10:08:31.843Z,8.52
2018-12-13T10:09:12.353Z,8.47
2018-12-13T10:09:52.870Z,8.65
2018-12-13T10:10:33.315Z,8.76
2018-12-13T10:11:13.703Z,8.49
2018-12-13T10:11:54.198Z,8.18